sensor_id;sensor_type;location;lat;lon;timestamp;pressure;altitude;pressure_sealevel;temperature;humidity
41062;BME280;26812;42.662;23.352;2023-04-29T00:01:00;94971.75;;;8.67;53.07
41062;BME280;26812;42.662;23.352;2023-04-29T00:03:26;94962.00;;;8.71;55.12
41062;BME280;26812;42.662;23.352;2023-04-29T00:05:53;94947.91;;;8.52;54.70
41062;BME280;26812;42.662;23.352;2023-04-29T00:08:18;94919.91;;;8.17;56.26
41062;BME280;26812;42.662;23.352;2023-04-29T00:10:45;94946.03;;;8.25;56.11
41062;BME280;26812;42.662;23.352;2023-04-29T00:13:10;94908.59;;;8.34;54.83
41062;BME280;26812;42.662;23.352;2023-04-29T00:15:37;94942.97;;;8.32;55.09
41062;BME280;26812;42.662;23.352;2023-04-29T00:18:03;94973.88;;;8.43;55.38
41062;BME280;26812;42.662;23.352;2023-04-29T00:20:28;94961.44;;;8.47;54.74
41062;BME280;26812;42.662;23.352;2023-04-29T00:22:54;94965.78;;;8.57;53.14
41062;BME280;26812;42.662;23.352;2023-04-29T00:25:19;94942.47;;;8.44;53.20
41062;BME280;26812;42.662;23.352;2023-04-29T00:27:44;94945.53;;;8.23;55.25
41062;BME280;26812;42.662;23.352;2023-04-29T00:30:10;94963.69;;;8.04;54.96
41062;BME280;26812;42.662;23.352;2023-04-29T00:32:35;94958.88;;;8.15;53.41
41062;BME280;26812;42.662;23.352;2023-04-29T00:35:01;94975.47;;;8.17;54.78
41062;BME280;26812;42.662;23.352;2023-04-29T00:37:27;94952.91;;;8.31;53.75
41062;BME280;26812;42.662;23.352;2023-04-29T00:39:52;94973.28;;;8.19;54.80
41062;BME280;26812;42.662;23.352;2023-04-29T00:42:18;94960.38;;;7.93;55.44
41062;BME280;26812;42.662;23.352;2023-04-29T00:44:43;94961.09;;;7.85;55.77
41062;BME280;26812;42.662;23.352;2023-04-29T00:47:09;94941.03;;;7.69;56.18
41062;BME280;26812;42.662;23.352;2023-04-29T00:49:39;94969.03;;;7.90;55.25
41062;BME280;26812;42.662;23.352;2023-04-29T00:52:04;94940.78;;;8.20;54.60
41062;BME280;26812;42.662;23.352;2023-04-29T00:54:33;94959.47;;;8.25;54.71
41062;BME280;26812;42.662;23.352;2023-04-29T00:57:00;94937.03;;;7.94;54.78
41062;BME280;26812;42.662;23.352;2023-04-29T00:59:27;94931.69;;;7.80;55.65
41062;BME280;26812;42.662;23.352;2023-04-29T01:01:58;94908.34;;;7.39;55.34
41062;BME280;26812;42.662;23.352;2023-04-29T01:04:24;94936.22;;;7.52;56.53
41062;BME280;26812;42.662;23.352;2023-04-29T01:07:00;94943.59;;;7.88;55.17
41062;BME280;26812;42.662;23.352;2023-04-29T01:09:42;94941.41;;;7.62;56.26
41062;BME280;26812;42.662;23.352;2023-04-29T01:15:08;94946.75;;;7.35;58.00
41062;BME280;26812;42.662;23.352;2023-04-29T01:17:49;94953.69;;;7.36;57.80
41062;BME280;26812;42.662;23.352;2023-04-29T01:20:15;94927.44;;;7.05;58.31
41062;BME280;26812;42.662;23.352;2023-04-29T01:22:42;94919.38;;;7.05;58.69
41062;BME280;26812;42.662;23.352;2023-04-29T01:25:08;94933.91;;;7.32;58.95
41062;BME280;26812;42.662;23.352;2023-04-29T01:38:48;94950.19;;;7.22;60.74
41062;BME280;26812;42.662;23.352;2023-04-29T01:41:22;94926.00;;;7.54;58.92
41062;BME280;26812;42.662;23.352;2023-04-29T01:43:52;94918.72;;;7.13;60.05
41062;BME280;26812;42.662;23.352;2023-04-29T01:46:20;94880.78;;;7.06;60.58
41062;BME280;26812;42.662;23.352;2023-04-29T01:48:46;94908.78;;;7.14;60.70
41062;BME280;26812;42.662;23.352;2023-04-29T01:51:12;94902.53;;;7.05;61.75
41062;BME280;26812;42.662;23.352;2023-04-29T01:53:38;94934.06;;;7.08;62.32
41062;BME280;26812;42.662;23.352;2023-04-29T01:56:06;94906.75;;;7.38;60.74
41062;BME280;26812;42.662;23.352;2023-04-29T01:58:32;94875.63;;;7.10;60.45
41062;BME280;26812;42.662;23.352;2023-04-29T02:00:57;94923.94;;;7.05;62.39
41062;BME280;26812;42.662;23.352;2023-04-29T02:03:23;94915.44;;;7.30;61.62
41062;BME280;26812;42.662;23.352;2023-04-29T02:05:48;94880.94;;;6.82;61.97
41062;BME280;26812;42.662;23.352;2023-04-29T02:08:15;94896.31;;;6.58;63.64
41062;BME280;26812;42.662;23.352;2023-04-29T02:10:41;94925.34;;;6.51;64.93
41062;BME280;26812;42.662;23.352;2023-04-29T02:13:06;94944.69;;;6.80;64.95
41062;BME280;26812;42.662;23.352;2023-04-29T02:15:32;94876.56;;;6.54;64.27
41062;BME280;26812;42.662;23.352;2023-04-29T02:17:57;94936.81;;;7.03;63.66
41062;BME280;26812;42.662;23.352;2023-04-29T02:20:23;94930.41;;;7.18;62.20
41062;BME280;26812;42.662;23.352;2023-04-29T02:22:48;94945.28;;;7.10;63.79
41062;BME280;26812;42.662;23.352;2023-04-29T02:25:14;94898.59;;;6.65;64.14
41062;BME280;26812;42.662;23.352;2023-04-29T02:27:39;94907.34;;;7.03;63.13
41062;BME280;26812;42.662;23.352;2023-04-29T02:30:05;94929.50;;;7.08;62.35
41062;BME280;26812;42.662;23.352;2023-04-29T02:32:30;94939.94;;;6.59;63.61
41062;BME280;26812;42.662;23.352;2023-04-29T02:34:56;94937.03;;;6.74;63.51
41062;BME280;26812;42.662;23.352;2023-04-29T02:37:22;94938.53;;;6.80;63.75
41062;BME280;26812;42.662;23.352;2023-04-29T02:39:47;94940.28;;;7.03;62.68
41062;BME280;26812;42.662;23.352;2023-04-29T02:42:13;94940.34;;;6.84;63.35
41062;BME280;26812;42.662;23.352;2023-04-29T02:44:38;94933.91;;;6.67;64.07
41062;BME280;26812;42.662;23.352;2023-04-29T02:47:04;94907.63;;;6.69;63.92
41062;BME280;26812;42.662;23.352;2023-04-29T02:49:29;94931.56;;;6.46;64.65
41062;BME280;26812;42.662;23.352;2023-04-29T02:51:55;94835.34;;;5.80;65.31
41062;BME280;26812;42.662;23.352;2023-04-29T02:54:21;94944.91;;;6.65;65.47
41062;BME280;26812;42.662;23.352;2023-04-29T02:56:46;94879.63;;;6.47;64.96
41062;BME280;26812;42.662;23.352;2023-04-29T02:59:11;94961.84;;;6.79;64.12
41062;BME280;26812;42.662;23.352;2023-04-29T03:01:37;94960.53;;;6.39;65.83
41062;BME280;26812;42.662;23.352;2023-04-29T03:04:03;94919.09;;;5.99;66.33
41062;BME280;26812;42.662;23.352;2023-04-29T03:06:29;94928.47;;;5.97;66.50
41062;BME280;26812;42.662;23.352;2023-04-29T03:08:55;94910.69;;;6.06;66.89
41062;BME280;26812;42.662;23.352;2023-04-29T03:11:20;94940.88;;;6.30;66.21
41062;BME280;26812;42.662;23.352;2023-04-29T03:13:48;94912.66;;;6.38;65.74
41062;BME280;26812;42.662;23.352;2023-04-29T03:16:14;94922.03;;;6.73;63.98
41062;BME280;26812;42.662;23.352;2023-04-29T03:18:41;94912.38;;;6.58;63.52
41062;BME280;26812;42.662;23.352;2023-04-29T03:21:06;94929.44;;;6.62;63.57
41062;BME280;26812;42.662;23.352;2023-04-29T03:23:32;94956.38;;;6.52;64.73
41062;BME280;26812;42.662;23.352;2023-04-29T03:25:57;94951.94;;;6.23;65.56
41062;BME280;26812;42.662;23.352;2023-04-29T03:28:23;94971.88;;;6.12;66.71
41062;BME280;26812;42.662;23.352;2023-04-29T03:30:49;94955.66;;;6.04;66.66
41062;BME280;26812;42.662;23.352;2023-04-29T03:33:14;94981.31;;;6.47;66.24
41062;BME280;26812;42.662;23.352;2023-04-29T03:35:39;94948.69;;;6.27;65.35
41062;BME280;26812;42.662;23.352;2023-04-29T03:38:05;94926.66;;;5.92;66.62
41062;BME280;26812;42.662;23.352;2023-04-29T03:40:30;94995.13;;;6.36;66.53
41062;BME280;26812;42.662;23.352;2023-04-29T03:42:56;94975.13;;;6.09;66.00
41062;BME280;26812;42.662;23.352;2023-04-29T03:45:22;94957.97;;;5.91;67.35
41062;BME280;26812;42.662;23.352;2023-04-29T03:47:47;94965.78;;;6.07;66.46
41062;BME280;26812;42.662;23.352;2023-04-29T03:50:13;94951.31;;;6.08;66.52
41062;BME280;26812;42.662;23.352;2023-04-29T03:52:38;94981.16;;;6.58;66.87
41062;BME280;26812;42.662;23.352;2023-04-29T03:55:04;94941.97;;;6.48;66.04
41062;BME280;26812;42.662;23.352;2023-04-29T03:57:30;94993.03;;;6.89;65.36
41062;BME280;26812;42.662;23.352;2023-04-29T03:59:55;94973.91;;;6.96;64.13
41062;BME280;26812;42.662;23.352;2023-04-29T04:02:20;94986.13;;;7.02;62.69
41062;BME280;26812;42.662;23.352;2023-04-29T04:04:46;94959.13;;;6.98;62.74
41062;BME280;26812;42.662;23.352;2023-04-29T04:07:11;94962.56;;;7.18;62.51
41062;BME280;26812;42.662;23.352;2023-04-29T04:09:37;94964.13;;;7.37;61.60
41062;BME280;26812;42.662;23.352;2023-04-29T04:12:03;94978.72;;;7.45;62.05
41062;BME280;26812;42.662;23.352;2023-04-29T04:14:28;94941.66;;;7.33;61.94
41062;BME280;26812;42.662;23.352;2023-04-29T04:16:54;94993.38;;;7.80;60.80
41062;BME280;26812;42.662;23.352;2023-04-29T04:19:19;94986.19;;;7.15;62.82
41062;BME280;26812;42.662;23.352;2023-04-29T04:21:45;94962.78;;;7.21;63.02
41062;BME280;26812;42.662;23.352;2023-04-29T04:24:10;94990.44;;;7.49;62.67
41062;BME280;26812;42.662;23.352;2023-04-29T04:26:36;94988.81;;;7.67;62.10
41062;BME280;26812;42.662;23.352;2023-04-29T04:29:02;94973.50;;;7.81;61.31
41062;BME280;26812;42.662;23.352;2023-04-29T04:31:27;94978.19;;;8.03;60.88
41062;BME280;26812;42.662;23.352;2023-04-29T04:33:53;94954.94;;;7.98;61.05
41062;BME280;26812;42.662;23.352;2023-04-29T04:36:18;94970.81;;;8.22;60.28
41062;BME280;26812;42.662;23.352;2023-04-29T04:38:43;94956.38;;;8.32;59.76
41062;BME280;26812;42.662;23.352;2023-04-29T04:41:09;94949.94;;;8.19;57.77
41062;BME280;26812;42.662;23.352;2023-04-29T04:43:34;94959.50;;;8.12;58.38
41062;BME280;26812;42.662;23.352;2023-04-29T04:46:08;94971.50;;;8.14;58.76
41062;BME280;26812;42.662;23.352;2023-04-29T04:48:34;94949.91;;;8.47;58.24
41062;BME280;26812;42.662;23.352;2023-04-29T04:51:06;95000.25;;;9.13;57.76
41062;BME280;26812;42.662;23.352;2023-04-29T04:53:32;94969.75;;;8.73;58.11
41062;BME280;26812;42.662;23.352;2023-04-29T04:56:01;94973.53;;;8.72;57.88
41062;BME280;26812;42.662;23.352;2023-04-29T04:58:26;94995.47;;;9.10;57.91
41062;BME280;26812;42.662;23.352;2023-04-29T05:00:51;94993.28;;;9.34;56.44
41062;BME280;26812;42.662;23.352;2023-04-29T05:03:17;94968.06;;;9.22;56.01
41062;BME280;26812;42.662;23.352;2023-04-29T05:05:42;94946.91;;;8.84;56.84
41062;BME280;26812;42.662;23.352;2023-04-29T05:08:08;94971.25;;;9.01;56.44
41062;BME280;26812;42.662;23.352;2023-04-29T05:10:37;94936.84;;;9.12;56.76
41062;BME280;26812;42.662;23.352;2023-04-29T05:13:02;94940.75;;;9.28;54.80
41062;BME280;26812;42.662;23.352;2023-04-29T05:15:28;94966.28;;;9.71;53.07
41062;BME280;26812;42.662;23.352;2023-04-29T05:17:53;94909.34;;;9.15;51.89
41062;BME280;26812;42.662;23.352;2023-04-29T05:20:19;94911.31;;;8.79;53.35
41062;BME280;26812;42.662;23.352;2023-04-29T05:22:45;94962.19;;;8.97;54.46
41062;BME280;26812;42.662;23.352;2023-04-29T05:25:11;94935.94;;;8.94;53.99
41062;BME280;26812;42.662;23.352;2023-04-29T05:27:36;94947.66;;;8.76;53.68
41062;BME280;26812;42.662;23.352;2023-04-29T05:30:02;94909.38;;;8.70;54.19
41062;BME280;26812;42.662;23.352;2023-04-29T05:32:27;94920.66;;;8.81;53.95
41062;BME280;26812;42.662;23.352;2023-04-29T05:34:53;94944.13;;;9.43;52.74
41062;BME280;26812;42.662;23.352;2023-04-29T05:37:18;94948.22;;;9.71;52.19
41062;BME280;26812;42.662;23.352;2023-04-29T05:39:43;94921.94;;;9.59;51.56
41062;BME280;26812;42.662;23.352;2023-04-29T05:42:09;94940.00;;;9.68;51.89
41062;BME280;26812;42.662;23.352;2023-04-29T05:44:34;94907.44;;;9.78;52.03
41062;BME280;26812;42.662;23.352;2023-04-29T05:47:00;94953.41;;;10.47;50.21
41062;BME280;26812;42.662;23.352;2023-04-29T05:49:25;94922.31;;;10.32;49.60
41062;BME280;26812;42.662;23.352;2023-04-29T05:51:51;94922.03;;;10.60;49.04
41062;BME280;26812;42.662;23.352;2023-04-29T05:54:16;94897.47;;;10.61;48.80
41062;BME280;26812;42.662;23.352;2023-04-29T05:56:42;94925.69;;;11.15;48.49
41062;BME280;26812;42.662;23.352;2023-04-29T05:59:07;94952.88;;;11.66;47.57
41062;BME280;26812;42.662;23.352;2023-04-29T06:01:32;94917.09;;;11.77;46.76
41062;BME280;26812;42.662;23.352;2023-04-29T06:03:58;94918.97;;;11.94;45.97
41062;BME280;26812;42.662;23.352;2023-04-29T06:06:23;94928.16;;;12.31;45.70
41062;BME280;26812;42.662;23.352;2023-04-29T06:08:49;94947.91;;;12.73;45.41
41062;BME280;26812;42.662;23.352;2023-04-29T06:11:15;94937.59;;;13.09;43.20
41062;BME280;26812;42.662;23.352;2023-04-29T06:13:40;94898.38;;;13.35;42.45
41062;BME280;26812;42.662;23.352;2023-04-29T06:16:06;94945.22;;;13.93;42.02
41062;BME280;26812;42.662;23.352;2023-04-29T06:18:31;94955.97;;;14.14;41.41
41062;BME280;26812;42.662;23.352;2023-04-29T06:20:57;94948.25;;;14.04;40.68
41062;BME280;26812;42.662;23.352;2023-04-29T06:23:22;94940.81;;;13.89;41.47
41062;BME280;26812;42.662;23.352;2023-04-29T06:25:48;94945.09;;;13.90;40.77
41062;BME280;26812;42.662;23.352;2023-04-29T06:28:13;94956.03;;;13.93;40.54
41062;BME280;26812;42.662;23.352;2023-04-29T06:30:39;94945.19;;;13.81;40.86
41062;BME280;26812;42.662;23.352;2023-04-29T06:33:04;94950.19;;;13.91;41.04
41062;BME280;26812;42.662;23.352;2023-04-29T06:35:30;94947.25;;;13.84;41.45
41062;BME280;26812;42.662;23.352;2023-04-29T06:37:55;94931.91;;;14.01;41.29
41062;BME280;26812;42.662;23.352;2023-04-29T06:40:21;94945.81;;;14.11;40.15
41062;BME280;26812;42.662;23.352;2023-04-29T06:42:46;94951.34;;;14.15;40.48
41062;BME280;26812;42.662;23.352;2023-04-29T06:45:11;94957.41;;;14.36;40.13
41062;BME280;26812;42.662;23.352;2023-04-29T06:47:37;94920.94;;;14.34;39.34
41062;BME280;26812;42.662;23.352;2023-04-29T06:50:02;94935.63;;;14.57;38.90
41062;BME280;26812;42.662;23.352;2023-04-29T06:52:29;94951.31;;;14.64;38.71
41062;BME280;26812;42.662;23.352;2023-04-29T06:54:55;94953.94;;;14.72;39.00
41062;BME280;26812;42.662;23.352;2023-04-29T06:57:20;94947.81;;;14.75;39.42
41062;BME280;26812;42.662;23.352;2023-04-29T06:59:46;94957.41;;;14.85;38.76
41062;BME280;26812;42.662;23.352;2023-04-29T07:02:11;94935.75;;;14.73;39.10
41062;BME280;26812;42.662;23.352;2023-04-29T07:04:37;94936.78;;;14.44;39.10
41062;BME280;26812;42.662;23.352;2023-04-29T07:07:03;94933.59;;;14.05;40.07
41062;BME280;26812;42.662;23.352;2023-04-29T07:09:34;94937.03;;;13.69;41.33
41062;BME280;26812;42.662;23.352;2023-04-29T07:12:00;94940.09;;;13.67;41.91
41062;BME280;26812;42.662;23.352;2023-04-29T07:14:26;94925.66;;;13.76;42.01
41062;BME280;26812;42.662;23.352;2023-04-29T07:16:53;94930.75;;;14.02;41.06
41062;BME280;26812;42.662;23.352;2023-04-29T07:19:18;94928.06;;;14.26;40.76
41062;BME280;26812;42.662;23.352;2023-04-29T07:21:44;94929.88;;;14.10;40.93
41062;BME280;26812;42.662;23.352;2023-04-29T07:24:10;94944.88;;;14.32;40.71
41062;BME280;26812;42.662;23.352;2023-04-29T07:26:35;94934.97;;;14.48;40.26
41062;BME280;26812;42.662;23.352;2023-04-29T07:29:01;94929.44;;;14.56;40.41
41062;BME280;26812;42.662;23.352;2023-04-29T07:31:27;94941.47;;;15.23;40.05
41062;BME280;26812;42.662;23.352;2023-04-29T07:33:52;94920.38;;;14.28;39.28
41062;BME280;26812;42.662;23.352;2023-04-29T07:36:19;94913.16;;;14.08;41.04
41062;BME280;26812;42.662;23.352;2023-04-29T07:38:45;94933.19;;;14.92;39.58
41062;BME280;26812;42.662;23.352;2023-04-29T07:41:10;94879.88;;;15.12;38.58
41062;BME280;26812;42.662;23.352;2023-04-29T07:43:36;94912.19;;;15.89;37.67
41062;BME280;26812;42.662;23.352;2023-04-29T07:46:01;94931.56;;;16.34;37.69
41062;BME280;26812;42.662;23.352;2023-04-29T07:48:26;94943.47;;;16.96;36.49
41062;BME280;26812;42.662;23.352;2023-04-29T07:50:52;94885.63;;;16.64;34.98
41062;BME280;26812;42.662;23.352;2023-04-29T07:53:17;94925.78;;;17.06;34.04
41062;BME280;26812;42.662;23.352;2023-04-29T07:55:43;94902.28;;;16.12;34.61
41062;BME280;26812;42.662;23.352;2023-04-29T07:58:08;94901.44;;;15.92;34.67
41062;BME280;26812;42.662;23.352;2023-04-29T08:00:34;94862.31;;;15.81;34.99
41062;BME280;26812;42.662;23.352;2023-04-29T08:02:59;94905.16;;;17.05;34.46
41062;BME280;26812;42.662;23.352;2023-04-29T08:05:31;94928.09;;;18.30;32.47
41062;BME280;26812;42.662;23.352;2023-04-29T08:07:57;94889.66;;;18.62;31.67
41062;BME280;26812;42.662;23.352;2023-04-29T08:10:22;94895.94;;;19.26;31.30
41062;BME280;26812;42.662;23.352;2023-04-29T08:12:48;94915.59;;;19.69;29.61
41062;BME280;26812;42.662;23.352;2023-04-29T08:15:14;94912.88;;;19.69;29.06
41062;BME280;26812;42.662;23.352;2023-04-29T08:17:40;94890.19;;;19.65;27.85
41062;BME280;26812;42.662;23.352;2023-04-29T08:20:06;94864.75;;;18.67;30.57
41062;BME280;26812;42.662;23.352;2023-04-29T08:22:33;94874.72;;;19.12;30.84
41062;BME280;26812;42.662;23.352;2023-04-29T08:24:58;94908.41;;;19.91;29.01
41062;BME280;26812;42.662;23.352;2023-04-29T08:27:23;94905.59;;;20.28;28.30
41062;BME280;26812;42.662;23.352;2023-04-29T08:29:49;94897.63;;;20.56;26.88
41062;BME280;26812;42.662;23.352;2023-04-29T08:32:15;94901.56;;;20.59;27.59
41062;BME280;26812;42.662;23.352;2023-04-29T08:34:40;94878.47;;;20.53;27.64
41062;BME280;26812;42.662;23.352;2023-04-29T08:37:06;94865.63;;;20.67;26.98
41062;BME280;26812;42.662;23.352;2023-04-29T08:39:31;94860.97;;;20.71;27.00
41062;BME280;26812;42.662;23.352;2023-04-29T08:41:57;94904.41;;;21.53;26.01
41062;BME280;26812;42.662;23.352;2023-04-29T08:44:27;94898.84;;;21.28;25.10
41062;BME280;26812;42.662;23.352;2023-04-29T08:46:53;94885.06;;;21.14;24.92
41062;BME280;26812;42.662;23.352;2023-04-29T08:49:19;94812.78;;;20.01;25.67
41062;BME280;26812;42.662;23.352;2023-04-29T08:51:47;94825.13;;;19.07;27.24
41062;BME280;26812;42.662;23.352;2023-04-29T08:54:13;94817.13;;;18.91;27.97
41062;BME280;26812;42.662;23.352;2023-04-29T08:56:39;94841.66;;;19.95;27.64
41062;BME280;26812;42.662;23.352;2023-04-29T08:59:06;94865.75;;;20.89;25.64
41062;BME280;26812;42.662;23.352;2023-04-29T09:01:35;94882.63;;;21.01;24.85
41062;BME280;26812;42.662;23.352;2023-04-29T09:06:33;94846.41;;;21.33;24.83
41062;BME280;26812;42.662;23.352;2023-04-29T09:08:59;94864.94;;;21.82;23.43
41062;BME280;26812;42.662;23.352;2023-04-29T09:11:26;94871.13;;;20.71;23.55
41062;BME280;26812;42.662;23.352;2023-04-29T09:13:58;94812.34;;;20.47;25.22
41062;BME280;26812;42.662;23.352;2023-04-29T09:16:24;94869.56;;;21.53;23.73
41062;BME280;26812;42.662;23.352;2023-04-29T09:18:50;94847.56;;;21.35;23.55
41062;BME280;26812;42.662;23.352;2023-04-29T09:21:27;94848.53;;;20.85;24.48
41062;BME280;26812;42.662;23.352;2023-04-29T09:23:55;94849.19;;;21.51;24.27
41062;BME280;26812;42.662;23.352;2023-04-29T09:26:21;94852.78;;;21.94;23.05
41062;BME280;26812;42.662;23.352;2023-04-29T09:28:48;94839.03;;;21.73;23.03
41062;BME280;26812;42.662;23.352;2023-04-29T09:31:29;94838.44;;;21.10;23.75
41062;BME280;26812;42.662;23.352;2023-04-29T09:33:56;94844.78;;;21.21;24.49
41062;BME280;26812;42.662;23.352;2023-04-29T09:39:09;94844.16;;;22.02;24.21
41062;BME280;26812;42.662;23.352;2023-04-29T09:44:32;94829.69;;;22.38;24.14
41062;BME280;26812;42.662;23.352;2023-04-29T09:47:07;94839.88;;;22.26;24.44
41062;BME280;26812;42.662;23.352;2023-04-29T09:49:37;94811.63;;;22.51;23.98
41062;BME280;26812;42.662;23.352;2023-04-29T09:54:33;94828.34;;;23.13;22.84
41062;BME280;26812;42.662;23.352;2023-04-29T09:57:01;94825.59;;;23.10;22.80
41062;BME280;26812;42.662;23.352;2023-04-29T09:59:30;94816.59;;;23.09;23.15
41062;BME280;26812;42.662;23.352;2023-04-29T10:01:57;94813.13;;;22.77;23.76
41062;BME280;26812;42.662;23.352;2023-04-29T10:04:26;94817.81;;;22.94;23.20
41062;BME280;26812;42.662;23.352;2023-04-29T10:06:53;94798.53;;;23.08;24.34
41062;BME280;26812;42.662;23.352;2023-04-29T10:09:20;94792.72;;;22.85;23.57
41062;BME280;26812;42.662;23.352;2023-04-29T10:11:48;94809.22;;;22.74;23.59
41062;BME280;26812;42.662;23.352;2023-04-29T10:14:22;94794.34;;;22.72;23.16
41062;BME280;26812;42.662;23.352;2023-04-29T10:17:07;94801.75;;;22.78;22.86
41062;BME280;26812;42.662;23.352;2023-04-29T10:20:07;94777.78;;;22.93;22.28
41062;BME280;26812;42.662;23.352;2023-04-29T10:22:46;94792.72;;;22.85;21.77
41062;BME280;26812;42.662;23.352;2023-04-29T10:25:14;94780.63;;;22.68;22.53
41062;BME280;26812;42.662;23.352;2023-04-29T10:27:44;94780.91;;;22.95;22.90
41062;BME280;26812;42.662;23.352;2023-04-29T10:30:14;94768.25;;;23.19;22.69
41062;BME280;26812;42.662;23.352;2023-04-29T10:32:41;94769.00;;;23.27;22.10
41062;BME280;26812;42.662;23.352;2023-04-29T10:35:11;94773.41;;;23.06;22.05
41062;BME280;26812;42.662;23.352;2023-04-29T10:37:41;94774.34;;;22.60;22.45
41062;BME280;26812;42.662;23.352;2023-04-29T10:43:04;94728.97;;;22.24;21.66
41062;BME280;26812;42.662;23.352;2023-04-29T10:45:30;94783.09;;;22.06;22.65
41062;BME280;26812;42.662;23.352;2023-04-29T10:53:14;94774.81;;;22.27;22.97
41062;BME280;26812;42.662;23.352;2023-04-29T10:55:40;94780.28;;;21.63;23.05
41062;BME280;26812;42.662;23.352;2023-04-29T11:00:59;94770.88;;;21.71;23.01
41062;BME280;26812;42.662;23.352;2023-04-29T11:06:10;94752.06;;;21.30;24.11
41062;BME280;26812;42.662;23.352;2023-04-29T11:08:39;94696.03;;;21.10;24.71
41062;BME280;26812;42.662;23.352;2023-04-29T11:11:05;94752.50;;;21.89;24.06
41062;BME280;26812;42.662;23.352;2023-04-29T11:13:39;94749.75;;;21.79;25.80
41062;BME280;26812;42.662;23.352;2023-04-29T11:18:31;94762.28;;;21.73;23.18
41062;BME280;26812;42.662;23.352;2023-04-29T11:23:28;94756.41;;;21.67;24.54
41062;BME280;26812;42.662;23.352;2023-04-29T11:25:54;94749.22;;;21.02;24.29
41062;BME280;26812;42.662;23.352;2023-04-29T11:28:21;94764.47;;;20.99;24.54
41062;BME280;26812;42.662;23.352;2023-04-29T11:30:49;94714.28;;;20.63;24.58
41062;BME280;26812;42.662;23.352;2023-04-29T11:33:15;94743.09;;;20.39;24.52
41062;BME280;26812;42.662;23.352;2023-04-29T11:35:40;94740.16;;;20.07;24.29
41062;BME280;26812;42.662;23.352;2023-04-29T11:38:06;94755.38;;;20.01;24.82
41062;BME280;26812;42.662;23.352;2023-04-29T11:40:32;94730.75;;;20.01;25.30
41062;BME280;26812;42.662;23.352;2023-04-29T11:42:57;94745.22;;;20.05;26.37
41062;BME280;26812;42.662;23.352;2023-04-29T11:45:23;94742.91;;;20.07;25.65
41062;BME280;26812;42.662;23.352;2023-04-29T11:47:48;94737.47;;;20.14;24.27
41062;BME280;26812;42.662;23.352;2023-04-29T11:50:16;94739.16;;;20.33;25.11
41062;BME280;26812;42.662;23.352;2023-04-29T11:52:45;94759.66;;;20.64;24.55
41062;BME280;26812;42.662;23.352;2023-04-29T11:55:11;94761.59;;;20.64;25.49
41062;BME280;26812;42.662;23.352;2023-04-29T11:57:37;94744.81;;;20.72;25.59
41062;BME280;26812;42.662;23.352;2023-04-29T12:00:03;94743.94;;;20.47;24.95
41062;BME280;26812;42.662;23.352;2023-04-29T12:04:56;94755.41;;;20.08;25.95
41062;BME280;26812;42.662;23.352;2023-04-29T12:07:28;94757.19;;;19.83;29.83
41062;BME280;26812;42.662;23.352;2023-04-29T12:09:54;94740.66;;;19.65;26.95
41062;BME280;26812;42.662;23.352;2023-04-29T12:12:21;94731.50;;;19.50;26.84
41062;BME280;26812;42.662;23.352;2023-04-29T12:14:47;94737.97;;;19.72;27.30
41062;BME280;26812;42.662;23.352;2023-04-29T12:17:13;94730.09;;;19.60;27.14
41062;BME280;26812;42.662;23.352;2023-04-29T12:19:39;94728.25;;;19.34;28.19
41062;BME280;26812;42.662;23.352;2023-04-29T12:22:05;94750.34;;;19.18;28.35
41062;BME280;26812;42.662;23.352;2023-04-29T12:24:38;94728.50;;;18.81;28.52
41062;BME280;26812;42.662;23.352;2023-04-29T12:27:07;94731.44;;;18.66;28.88
41062;BME280;26812;42.662;23.352;2023-04-29T12:29:35;94741.38;;;18.51;30.10
41062;BME280;26812;42.662;23.352;2023-04-29T12:32:00;94714.25;;;18.31;29.29
41062;BME280;26812;42.662;23.352;2023-04-29T12:34:28;94733.84;;;18.41;30.02
41062;BME280;26812;42.662;23.352;2023-04-29T12:36:55;94701.63;;;18.50;29.46
41062;BME280;26812;42.662;23.352;2023-04-29T12:39:21;94725.72;;;18.74;30.54
41062;BME280;26812;42.662;23.352;2023-04-29T12:41:47;94652.50;;;18.83;29.44
41062;BME280;26812;42.662;23.352;2023-04-29T12:44:12;94709.50;;;19.29;29.66
41062;BME280;26812;42.662;23.352;2023-04-29T12:46:41;94710.53;;;19.58;29.49
41062;BME280;26812;42.662;23.352;2023-04-29T12:49:07;94714.59;;;19.78;28.36
41062;BME280;26812;42.662;23.352;2023-04-29T12:51:34;94714.09;;;19.21;28.96
41062;BME280;26812;42.662;23.352;2023-04-29T12:54:03;94702.28;;;19.10;29.53
41062;BME280;26812;42.662;23.352;2023-04-29T12:56:30;94713.94;;;19.51;29.20
41062;BME280;26812;42.662;23.352;2023-04-29T12:58:56;94709.13;;;19.82;29.08
41062;BME280;26812;42.662;23.352;2023-04-29T13:01:28;94703.41;;;19.50;28.80
41062;BME280;26812;42.662;23.352;2023-04-29T13:03:53;94702.69;;;19.53;29.22
41062;BME280;26812;42.662;23.352;2023-04-29T13:06:19;94696.59;;;19.74;29.65
41062;BME280;26812;42.662;23.352;2023-04-29T13:08:44;94694.63;;;19.71;30.67
41062;BME280;26812;42.662;23.352;2023-04-29T13:11:10;94669.84;;;20.04;29.13
41062;BME280;26812;42.662;23.352;2023-04-29T13:13:37;94718.31;;;20.11;30.44
41062;BME280;26812;42.662;23.352;2023-04-29T13:16:03;94716.44;;;20.22;29.26
41062;BME280;26812;42.662;23.352;2023-04-29T13:18:28;94717.91;;;20.09;29.52
41062;BME280;26812;42.662;23.352;2023-04-29T13:20:53;94705.16;;;20.34;28.85
41062;BME280;26812;42.662;23.352;2023-04-29T13:23:19;94685.34;;;20.59;29.52
41062;BME280;26812;42.662;23.352;2023-04-29T13:25:45;94702.19;;;20.64;30.46
41062;BME280;26812;42.662;23.352;2023-04-29T13:28:10;94711.59;;;20.74;30.50
41062;BME280;26812;42.662;23.352;2023-04-29T13:30:36;94710.03;;;20.73;29.52
41062;BME280;26812;42.662;23.352;2023-04-29T13:33:01;94702.56;;;20.59;29.65
41062;BME280;26812;42.662;23.352;2023-04-29T13:35:26;94704.22;;;20.92;28.37
41062;BME280;26812;42.662;23.352;2023-04-29T13:37:52;94711.91;;;20.51;29.07